sensor_id;sensor_type;location;lat;lon;timestamp;pressure;altitude;pressure_sealevel;temperature;humidity
18275;BME280;19470;49.322;7.218;2023-10-19T00:00:06;96892.41;;;17.28;100.00
18275;BME280;19470;49.322;7.218;2023-10-19T00:02:48;96891.75;;;17.31;100.00
18275;BME280;19470;49.322;7.218;2023-10-19T00:05:17;96893.97;;;17.29;100.00
18275;BME280;19470;49.322;7.218;2023-10-19T00:07:45;96892.28;;;17.25;100.00
18275;BME280;19470;49.322;7.218;2023-10-19T00:10:11;96890.00;;;16.73;100.00
18275;BME280;19470;49.322;7.218;2023-10-19T00:12:41;96883.41;;;17.12;100.00
18275;BME280;19470;49.322;7.218;2023-10-19T00:15:07;96879.88;;;17.20;100.00
18275;BME280;19470;49.322;7.218;2023-10-19T00:17:35;96879.94;;;17.11;100.00
18275;BME280;19470;49.322;7.218;2023-10-19T00:20:04;96877.88;;;16.75;100.00
18275;BME280;19470;49.322;7.218;2023-10-19T00:22:55;96888.88;;;16.74;100.00
18275;BME280;19470;49.322;7.218;2023-10-19T00:25:22;96874.91;;;17.31;100.00
18275;BME280;19470;49.322;7.218;2023-10-19T00:27:49;96869.94;;;17.42;100.00
18275;BME280;19470;49.322;7.218;2023-10-19T00:30:15;96861.22;;;17.45;100.00
18275;BME280;19470;49.322;7.218;2023-10-19T00:32:48;96869.59;;;17.10;100.00
18275;BME280;19470;49.322;7.218;2023-10-19T00:35:16;96873.59;;;17.37;100.00
18275;BME280;19470;49.322;7.218;2023-10-19T00:37:55;96870.94;;;17.49;100.00
18275;BME280;19470;49.322;7.218;2023-10-19T00:40:42;96868.34;;;17.41;100.00
18275;BME280;19470;49.322;7.218;2023-10-19T00:43:12;96866.16;;;17.22;100.00
18275;BME280;19470;49.322;7.218;2023-10-19T00:45:43;96868.41;;;17.20;100.00
18275;BME280;19470;49.322;7.218;2023-10-19T00:48:12;96868.25;;;17.37;100.00
18275;BME280;19470;49.322;7.218;2023-10-19T00:50:38;96865.78;;;17.11;100.00
18275;BME280;19470;49.322;7.218;2023-10-19T00:53:07;96867.47;;;17.36;100.00
18275;BME280;19470;49.322;7.218;2023-10-19T00:55:38;96869.47;;;17.40;100.00
18275;BME280;19470;49.322;7.218;2023-10-19T00:58:07;96868.47;;;17.44;100.00
18275;BME280;19470;49.322;7.218;2023-10-19T01:00:37;96874.78;;;17.27;100.00
18275;BME280;19470;49.322;7.218;2023-10-19T01:03:10;96862.53;;;17.72;100.00
18275;BME280;19470;49.322;7.218;2023-10-19T01:05:42;96870.78;;;17.67;100.00
18275;BME280;19470;49.322;7.218;2023-10-19T01:08:14;96865.50;;;18.16;100.00
18275;BME280;19470;49.322;7.218;2023-10-19T01:10:50;96867.84;;;18.29;100.00
18275;BME280;19470;49.322;7.218;2023-10-19T01:13:18;96860.19;;;18.80;100.00
18275;BME280;19470;49.322;7.218;2023-10-19T01:15:52;96862.59;;;18.70;100.00
18275;BME280;19470;49.322;7.218;2023-10-19T01:18:19;96851.78;;;18.94;100.00
18275;BME280;19470;49.322;7.218;2023-10-19T01:20:47;96855.63;;;18.81;100.00
18275;BME280;19470;49.322;7.218;2023-10-19T01:23:17;96867.50;;;19.08;100.00
18275;BME280;19470;49.322;7.218;2023-10-19T01:25:54;96862.66;;;19.13;100.00
18275;BME280;19470;49.322;7.218;2023-10-19T01:28:31;96852.38;;;19.44;100.00
18275;BME280;19470;49.322;7.218;2023-10-19T01:31:15;96859.59;;;19.27;100.00
18275;BME280;19470;49.322;7.218;2023-10-19T01:33:47;96855.88;;;19.60;100.00
18275;BME280;19470;49.322;7.218;2023-10-19T01:36:15;96853.16;;;19.16;100.00
18275;BME280;19470;49.322;7.218;2023-10-19T01:38:51;96850.97;;;19.62;100.00
18275;BME280;19470;49.322;7.218;2023-10-19T01:41:20;96846.78;;;19.80;100.00
18275;BME280;19470;49.322;7.218;2023-10-19T01:43:46;96846.97;;;19.87;100.00
18275;BME280;19470;49.322;7.218;2023-10-19T01:46:18;96846.19;;;19.71;100.00
18275;BME280;19470;49.322;7.218;2023-10-19T01:48:48;96840.13;;;19.90;100.00
18275;BME280;19470;49.322;7.218;2023-10-19T01:51:19;96839.19;;;19.98;100.00
18275;BME280;19470;49.322;7.218;2023-10-19T01:53:46;96843.00;;;19.97;100.00
18275;BME280;19470;49.322;7.218;2023-10-19T01:56:15;96844.38;;;20.07;100.00
18275;BME280;19470;49.322;7.218;2023-10-19T01:58:42;96839.59;;;19.84;100.00
18275;BME280;19470;49.322;7.218;2023-10-19T02:01:12;96833.03;;;19.82;100.00
18275;BME280;19470;49.322;7.218;2023-10-19T02:03:55;96836.41;;;19.79;100.00
18275;BME280;19470;49.322;7.218;2023-10-19T02:06:24;96836.84;;;19.97;100.00
18275;BME280;19470;49.322;7.218;2023-10-19T02:08:55;96821.81;;;20.27;100.00
18275;BME280;19470;49.322;7.218;2023-10-19T02:11:27;96829.06;;;19.91;100.00
18275;BME280;19470;49.322;7.218;2023-10-19T02:13:56;96822.53;;;19.61;100.00
18275;BME280;19470;49.322;7.218;2023-10-19T02:16:25;96825.41;;;20.00;100.00
18275;BME280;19470;49.322;7.218;2023-10-19T02:18:55;96819.94;;;19.96;100.00
18275;BME280;19470;49.322;7.218;2023-10-19T02:21:21;96810.63;;;20.25;100.00
18275;BME280;19470;49.322;7.218;2023-10-19T02:23:53;96812.19;;;20.26;100.00
18275;BME280;19470;49.322;7.218;2023-10-19T02:26:19;96803.53;;;20.17;100.00
18275;BME280;19470;49.322;7.218;2023-10-19T02:28:49;96801.03;;;20.08;100.00
18275;BME280;19470;49.322;7.218;2023-10-19T02:31:16;96805.75;;;19.96;100.00
18275;BME280;19470;49.322;7.218;2023-10-19T02:33:47;96805.66;;;19.76;100.00
18275;BME280;19470;49.322;7.218;2023-10-19T02:36:17;96802.72;;;19.81;100.00
18275;BME280;19470;49.322;7.218;2023-10-19T02:38:45;96802.53;;;19.74;100.00
18275;BME280;19470;49.322;7.218;2023-10-19T02:41:14;96796.28;;;19.70;100.00
18275;BME280;19470;49.322;7.218;2023-10-19T02:43:41;96796.56;;;19.65;100.00
18275;BME280;19470;49.322;7.218;2023-10-19T02:46:12;96799.94;;;19.62;100.00
18275;BME280;19470;49.322;7.218;2023-10-19T02:48:41;96797.31;;;19.50;100.00
18275;BME280;19470;49.322;7.218;2023-10-19T02:51:10;96800.16;;;19.41;100.00
18275;BME280;19470;49.322;7.218;2023-10-19T02:53:37;96800.41;;;19.52;100.00
18275;BME280;19470;49.322;7.218;2023-10-19T02:56:13;96794.97;;;19.48;100.00
18275;BME280;19470;49.322;7.218;2023-10-19T02:58:42;96784.41;;;19.39;100.00
18275;BME280;19470;49.322;7.218;2023-10-19T03:01:16;96780.97;;;19.11;100.00
18275;BME280;19470;49.322;7.218;2023-10-19T03:03:50;96787.19;;;18.59;100.00
18275;BME280;19470;49.322;7.218;2023-10-19T03:06:18;96783.31;;;18.84;100.00
18275;BME280;19470;49.322;7.218;2023-10-19T03:08:46;96788.69;;;19.12;100.00
18275;BME280;19470;49.322;7.218;2023-10-19T03:11:12;96782.44;;;19.24;100.00
18275;BME280;19470;49.322;7.218;2023-10-19T03:13:40;96783.00;;;19.46;100.00
18275;BME280;19470;49.322;7.218;2023-10-19T03:16:06;96779.09;;;19.27;100.00
18275;BME280;19470;49.322;7.218;2023-10-19T03:18:36;96773.47;;;19.32;100.00
18275;BME280;19470;49.322;7.218;2023-10-19T03:21:01;96763.91;;;19.63;100.00
18275;BME280;19470;49.322;7.218;2023-10-19T03:23:28;96763.97;;;19.66;100.00
18275;BME280;19470;49.322;7.218;2023-10-19T03:25:54;96766.31;;;19.84;100.00
18275;BME280;19470;49.322;7.218;2023-10-19T03:28:38;96772.19;;;19.89;100.00
18275;BME280;19470;49.322;7.218;2023-10-19T03:31:06;96765.13;;;19.81;100.00
18275;BME280;19470;49.322;7.218;2023-10-19T03:33:32;96761.44;;;20.05;100.00
18275;BME280;19470;49.322;7.218;2023-10-19T03:36:03;96757.81;;;19.98;100.00
18275;BME280;19470;49.322;7.218;2023-10-19T03:38:30;96750.41;;;20.10;100.00
18275;BME280;19470;49.322;7.218;2023-10-19T03:41:02;96756.84;;;19.90;100.00
18275;BME280;19470;49.322;7.218;2023-10-19T03:43:32;96757.97;;;20.05;100.00
18275;BME280;19470;49.322;7.218;2023-10-19T03:46:02;96754.84;;;20.19;100.00
18275;BME280;19470;49.322;7.218;2023-10-19T03:48:31;96747.72;;;20.10;100.00
18275;BME280;19470;49.322;7.218;2023-10-19T03:51:04;96747.19;;;20.21;100.00
18275;BME280;19470;49.322;7.218;2023-10-19T03:53:31;96739.63;;;19.91;100.00
18275;BME280;19470;49.322;7.218;2023-10-19T03:55:58;96735.06;;;20.11;100.00
18275;BME280;19470;49.322;7.218;2023-10-19T03:58:24;96734.25;;;19.91;100.00
18275;BME280;19470;49.322;7.218;2023-10-19T04:00:54;96739.09;;;19.85;100.00
18275;BME280;19470;49.322;7.218;2023-10-19T04:03:26;96733.72;;;19.85;100.00
18275;BME280;19470;49.322;7.218;2023-10-19T04:05:55;96738.72;;;19.68;100.00
18275;BME280;19470;49.322;7.218;2023-10-19T04:08:27;96739.81;;;19.82;100.00
18275;BME280;19470;49.322;7.218;2023-10-19T04:11:00;96734.38;;;19.63;100.00
18275;BME280;19470;49.322;7.218;2023-10-19T04:13:37;96727.53;;;19.81;100.00
18275;BME280;19470;49.322;7.218;2023-10-19T04:16:04;96731.56;;;19.91;100.00
18275;BME280;19470;49.322;7.218;2023-10-19T04:18:34;96733.34;;;20.03;100.00
18275;BME280;19470;49.322;7.218;2023-10-19T04:21:03;96727.22;;;20.02;100.00
18275;BME280;19470;49.322;7.218;2023-10-19T04:23:31;96732.53;;;19.83;100.00
18275;BME280;19470;49.322;7.218;2023-10-19T04:26:02;96737.88;;;19.99;100.00
18275;BME280;19470;49.322;7.218;2023-10-19T04:28:36;96725.47;;;20.10;100.00
18275;BME280;19470;49.322;7.218;2023-10-19T04:31:10;96723.88;;;20.09;100.00
18275;BME280;19470;49.322;7.218;2023-10-19T04:33:39;96716.97;;;20.08;100.00
18275;BME280;19470;49.322;7.218;2023-10-19T04:36:07;96715.91;;;19.77;100.00
18275;BME280;19470;49.322;7.218;2023-10-19T04:38:38;96726.03;;;20.19;100.00
18275;BME280;19470;49.322;7.218;2023-10-19T04:41:05;96716.00;;;20.16;100.00
18275;BME280;19470;49.322;7.218;2023-10-19T04:43:35;96715.50;;;19.95;100.00
18275;BME280;19470;49.322;7.218;2023-10-19T04:46:07;96723.97;;;20.12;100.00
18275;BME280;19470;49.322;7.218;2023-10-19T04:48:37;96723.22;;;20.31;100.00
18275;BME280;19470;49.322;7.218;2023-10-19T04:51:05;96724.63;;;20.25;100.00
18275;BME280;19470;49.322;7.218;2023-10-19T04:53:32;96728.13;;;19.90;100.00
18275;BME280;19470;49.322;7.218;2023-10-19T04:56:00;96730.63;;;19.83;100.00
18275;BME280;19470;49.322;7.218;2023-10-19T04:58:29;96728.97;;;19.79;100.00
18275;BME280;19470;49.322;7.218;2023-10-19T05:00:55;96715.88;;;19.93;100.00
18275;BME280;19470;49.322;7.218;2023-10-19T05:03:24;96719.19;;;19.86;100.00
18275;BME280;19470;49.322;7.218;2023-10-19T05:05:50;96712.81;;;19.95;100.00
18275;BME280;19470;49.322;7.218;2023-10-19T05:08:17;96715.97;;;19.18;100.00
18275;BME280;19470;49.322;7.218;2023-10-19T05:10:44;96720.38;;;19.89;100.00
18275;BME280;19470;49.322;7.218;2023-10-19T05:13:12;96710.13;;;19.95;100.00
18275;BME280;19470;49.322;7.218;2023-10-19T05:15:39;96707.75;;;20.09;100.00
18275;BME280;19470;49.322;7.218;2023-10-19T05:18:06;96710.59;;;19.97;100.00
18275;BME280;19470;49.322;7.218;2023-10-19T05:20:33;96715.50;;;19.95;100.00
18275;BME280;19470;49.322;7.218;2023-10-19T05:23:03;96712.41;;;19.92;100.00
18275;BME280;19470;49.322;7.218;2023-10-19T05:25:29;96715.59;;;19.98;100.00
18275;BME280;19470;49.322;7.218;2023-10-19T05:27:56;96710.53;;;19.77;100.00
18275;BME280;19470;49.322;7.218;2023-10-19T05:30:25;96712.38;;;19.73;100.00
18275;BME280;19470;49.322;7.218;2023-10-19T05:32:51;96711.47;;;20.20;100.00
18275;BME280;19470;49.322;7.218;2023-10-19T05:35:18;96715.09;;;19.92;100.00
18275;BME280;19470;49.322;7.218;2023-10-19T05:37:51;96706.06;;;20.01;100.00
18275;BME280;19470;49.322;7.218;2023-10-19T05:40:18;96707.75;;;20.09;100.00
18275;BME280;19470;49.322;7.218;2023-10-19T05:42:44;96706.88;;;19.85;100.00
18275;BME280;19470;49.322;7.218;2023-10-19T05:45:12;96714.00;;;20.13;100.00
18275;BME280;19470;49.322;7.218;2023-10-19T05:47:43;96703.38;;;20.01;100.00
18275;BME280;19470;49.322;7.218;2023-10-19T05:50:10;96699.53;;;19.82;100.00
18275;BME280;19470;49.322;7.218;2023-10-19T05:52:40;96704.63;;;19.87;100.00
18275;BME280;19470;49.322;7.218;2023-10-19T05:55:08;96712.63;;;20.03;100.00
18275;BME280;19470;49.322;7.218;2023-10-19T05:57:35;96716.66;;;19.94;100.00
18275;BME280;19470;49.322;7.218;2023-10-19T06:00:07;96715.47;;;19.91;100.00
18275;BME280;19470;49.322;7.218;2023-10-19T06:02:38;96711.19;;;19.90;100.00
18275;BME280;19470;49.322;7.218;2023-10-19T06:05:07;96714.69;;;19.90;100.00
18275;BME280;19470;49.322;7.218;2023-10-19T06:07:33;96717.88;;;19.96;100.00
18275;BME280;19470;49.322;7.218;2023-10-19T06:10:00;96711.53;;;19.88;100.00
18275;BME280;19470;49.322;7.218;2023-10-19T06:12:30;96712.50;;;19.80;100.00
18275;BME280;19470;49.322;7.218;2023-10-19T06:14:56;96716.66;;;19.94;100.00
18275;BME280;19470;49.322;7.218;2023-10-19T06:17:23;96713.19;;;19.93;100.00
18275;BME280;19470;49.322;7.218;2023-10-19T06:19:49;96715.59;;;19.63;100.00
18275;BME280;19470;49.322;7.218;2023-10-19T06:22:17;96707.13;;;19.80;100.00
18275;BME280;19470;49.322;7.218;2023-10-19T06:24:43;96715.47;;;19.75;100.00
18275;BME280;19470;49.322;7.218;2023-10-19T06:27:10;96709.22;;;19.55;100.00
18275;BME280;19470;49.322;7.218;2023-10-19T06:29:37;96714.69;;;19.59;100.00
18275;BME280;19470;49.322;7.218;2023-10-19T06:32:04;96717.03;;;19.60;100.00
18275;BME280;19470;49.322;7.218;2023-10-19T06:34:30;96717.56;;;19.82;100.00
18275;BME280;19470;49.322;7.218;2023-10-19T06:36:57;96709.13;;;19.83;100.00
18275;BME280;19470;49.322;7.218;2023-10-19T06:39:41;96712.50;;;19.96;100.00
18275;BME280;19470;49.322;7.218;2023-10-19T06:42:08;96716.19;;;20.07;100.00
18275;BME280;19470;49.322;7.218;2023-10-19T06:44:41;96709.44;;;19.98;100.00
18275;BME280;19470;49.322;7.218;2023-10-19T06:47:08;96717.69;;;20.05;100.00
18275;BME280;19470;49.322;7.218;2023-10-19T06:49:35;96717.69;;;20.05;100.00
18275;BME280;19470;49.322;7.218;2023-10-19T06:52:02;96717.22;;;20.03;100.00
18275;BME280;19470;49.322;7.218;2023-10-19T06:54:30;96705.84;;;19.74;100.00
18275;BME280;19470;49.322;7.218;2023-10-19T06:56:57;96714.38;;;19.76;100.00
18275;BME280;19470;49.322;7.218;2023-10-19T06:59:24;96710.28;;;19.82;100.00
18275;BME280;19470;49.322;7.218;2023-10-19T07:01:51;96711.72;;;19.80;100.00
18275;BME280;19470;49.322;7.218;2023-10-19T07:04:17;96719.97;;;19.71;100.00
18275;BME280;19470;49.322;7.218;2023-10-19T07:06:44;96724.38;;;19.79;100.00
18275;BME280;19470;49.322;7.218;2023-10-19T07:09:13;96728.53;;;19.92;100.00
18275;BME280;19470;49.322;7.218;2023-10-19T07:11:40;96728.50;;;20.28;100.00
18275;BME280;19470;49.322;7.218;2023-10-19T07:14:11;96733.06;;;20.24;100.00
18275;BME280;19470;49.322;7.218;2023-10-19T07:16:39;96741.44;;;20.22;100.00
18275;BME280;19470;49.322;7.218;2023-10-19T07:19:05;96728.66;;;20.35;100.00
18275;BME280;19470;49.322;7.218;2023-10-19T07:21:34;96723.50;;;20.26;100.00
18275;BME280;19470;49.322;7.218;2023-10-19T07:24:03;96720.94;;;20.14;100.00
18275;BME280;19470;49.322;7.218;2023-10-19T07:26:34;96724.94;;;20.39;100.00
18275;BME280;19470;49.322;7.218;2023-10-19T07:29:08;96718.13;;;20.46;100.00
18275;BME280;19470;49.322;7.218;2023-10-19T07:31:37;96714.56;;;20.57;100.00
18275;BME280;19470;49.322;7.218;2023-10-19T07:34:04;96722.81;;;20.29;100.00
18275;BME280;19470;49.322;7.218;2023-10-19T07:36:31;96731.19;;;20.28;100.00
18275;BME280;19470;49.322;7.218;2023-10-19T07:38:57;96724.94;;;20.59;100.00
18275;BME280;19470;49.322;7.218;2023-10-19T07:41:24;96716.50;;;19.86;100.00
18275;BME280;19470;49.322;7.218;2023-10-19T07:43:51;96698.06;;;19.69;100.00
18275;BME280;19470;49.322;7.218;2023-10-19T07:46:17;96702.88;;;20.50;100.00
18275;BME280;19470;49.322;7.218;2023-10-19T07:48:45;96698.63;;;20.49;100.00
18275;BME280;19470;49.322;7.218;2023-10-19T07:51:12;96699.75;;;20.67;100.00
18275;BME280;19470;49.322;7.218;2023-10-19T07:53:38;96693.94;;;20.65;100.00
18275;BME280;19470;49.322;7.218;2023-10-19T07:56:05;96707.28;;;20.58;100.00
18275;BME280;19470;49.322;7.218;2023-10-19T07:58:32;96689.41;;;20.69;100.00
18275;BME280;19470;49.322;7.218;2023-10-19T08:00:59;96688.28;;;21.35;100.00
18275;BME280;19470;49.322;7.218;2023-10-19T08:03:26;96684.72;;;21.51;100.00
18275;BME280;19470;49.322;7.218;2023-10-19T08:05:54;96689.16;;;21.20;100.00
18275;BME280;19470;49.322;7.218;2023-10-19T08:08:21;96692.22;;;21.18;100.00
18275;BME280;19470;49.322;7.218;2023-10-19T08:10:50;96691.41;;;21.37;100.00
18275;BME280;19470;49.322;7.218;2023-10-19T08:13:16;96688.34;;;21.39;100.00
18275;BME280;19470;49.322;7.218;2023-10-19T08:15:43;96689.94;;;21.21;100.00
18275;BME280;19470;49.322;7.218;2023-10-19T08:18:10;96684.41;;;21.56;100.00
18275;BME280;19470;49.322;7.218;2023-10-19T08:20:37;96683.34;;;21.90;100.00
18275;BME280;19470;49.322;7.218;2023-10-19T08:23:06;96679.25;;;22.00;97.94
18275;BME280;19470;49.322;7.218;2023-10-19T08:25:33;96682.75;;;22.31;97.24
18275;BME280;19470;49.322;7.218;2023-10-19T08:28:00;96682.09;;;22.41;96.36
18275;BME280;19470;49.322;7.218;2023-10-19T08:30:26;96681.88;;;21.97;99.18
18275;BME280;19470;49.322;7.218;2023-10-19T08:32:54;96678.69;;;22.48;95.84
18275;BME280;19470;49.322;7.218;2023-10-19T08:35:23;96664.44;;;21.87;95.76
18275;BME280;19470;49.322;7.218;2023-10-19T08:37:50;96672.94;;;22.83;91.01
18275;BME280;19470;49.322;7.218;2023-10-19T08:40:20;96668.28;;;23.20;89.52
18275;BME280;19470;49.322;7.218;2023-10-19T08:42:48;96667.47;;;22.42;97.10
18275;BME280;19470;49.322;7.218;2023-10-19T08:45:16;96670.22;;;22.45;94.88
18275;BME280;19470;49.322;7.218;2023-10-19T08:47:48;96664.00;;;22.41;94.29
18275;BME280;19470;49.322;7.218;2023-10-19T08:50:15;96667.13;;;22.13;96.25
18275;BME280;19470;49.322;7.218;2023-10-19T08:52:46;96665.13;;;21.31;100.00
18275;BME280;19470;49.322;7.218;2023-10-19T08:55:13;96658.41;;;21.97;97.62
18275;BME280;19470;49.322;7.218;2023-10-19T08:57:41;96648.63;;;22.12;96.83
18275;BME280;19470;49.322;7.218;2023-10-19T09:00:09;96638.75;;;22.23;96.75
18275;BME280;19470;49.322;7.218;2023-10-19T09:02:36;96633.16;;;22.09;96.54
18275;BME280;19470;49.322;7.218;2023-10-19T09:05:06;96635.00;;;22.68;92.44
18275;BME280;19470;49.322;7.218;2023-10-19T09:07:32;96635.38;;;22.67;92.87
18275;BME280;19470;49.322;7.218;2023-10-19T09:09:59;96637.53;;;22.51;95.29
18275;BME280;19470;49.322;7.218;2023-10-19T09:12:28;96634.34;;;22.41;95.09
18275;BME280;19470;49.322;7.218;2023-10-19T09:14:56;96637.34;;;23.11;90.44
18275;BME280;19470;49.322;7.218;2023-10-19T09:17:28;96628.41;;;23.55;87.71
18275;BME280;19470;49.322;7.218;2023-10-19T09:19:55;96631.06;;;24.10;84.45
18275;BME280;19470;49.322;7.218;2023-10-19T09:22:22;96635.31;;;23.49;89.29
18275;BME280;19470;49.322;7.218;2023-10-19T09:24:49;96627.16;;;22.93;93.16
18275;BME280;19470;49.322;7.218;2023-10-19T09:27:17;96622.19;;;23.51;90.22
18275;BME280;19470;49.322;7.218;2023-10-19T09:29:43;96611.44;;;24.34;82.47
18275;BME280;19470;49.322;7.218;2023-10-19T09:32:11;96610.88;;;23.93;85.49
18275;BME280;19470;49.322;7.218;2023-10-19T09:34:40;96615.25;;;24.22;82.83
18275;BME280;19470;49.322;7.218;2023-10-19T09:37:09;96600.75;;;24.84;80.64
18275;BME280;19470;49.322;7.218;2023-10-19T09:42:58;96608.09;;;23.71;88.38
18275;BME280;19470;49.322;7.218;2023-10-19T09:45:30;96608.63;;;24.02;86.96
18275;BME280;19470;49.322;7.218;2023-10-19T09:48:01;96610.38;;;24.57;83.20
18275;BME280;19470;49.322;7.218;2023-10-19T09:50:31;96607.13;;;24.15;85.11
18275;BME280;19470;49.322;7.218;2023-10-19T09:52:58;96602.91;;;24.25;85.86
18275;BME280;19470;49.322;7.218;2023-10-19T09:55:31;96603.38;;;24.45;84.37
18275;BME280;19470;49.322;7.218;2023-10-19T09:58:03;96599.06;;;24.33;85.31
18275;BME280;19470;49.322;7.218;2023-10-19T10:00:33;96596.38;;;24.33;84.59
18275;BME280;19470;49.322;7.218;2023-10-19T10:03:02;96606.91;;;24.56;83.75
18275;BME280;19470;49.322;7.218;2023-10-19T10:05:45;96599.72;;;23.98;86.83
18275;BME280;19470;49.322;7.218;2023-10-19T10:08:31;96591.72;;;24.34;85.88
18275;BME280;19470;49.322;7.218;2023-10-19T10:11:13;96583.69;;;24.59;83.78
18275;BME280;19470;49.322;7.218;2023-10-19T10:13:42;96585.94;;;24.35;85.03
18275;BME280;19470;49.322;7.218;2023-10-19T10:16:09;96582.53;;;24.42;86.69
18275;BME280;19470;49.322;7.218;2023-10-19T10:18:36;96590.25;;;24.58;85.29
18275;BME280;19470;49.322;7.218;2023-10-19T10:21:07;96591.00;;;24.51;86.26
18275;BME280;19470;49.322;7.218;2023-10-19T10:23:40;96575.88;;;24.29;86.05
18275;BME280;19470;49.322;7.218;2023-10-19T10:26:08;96573.88;;;24.08;86.31
18275;BME280;19470;49.322;7.218;2023-10-19T10:28:35;96581.53;;;23.91;88.06
18275;BME280;19470;49.322;7.218;2023-10-19T10:31:12;96581.97;;;24.01;88.41
18275;BME280;19470;49.322;7.218;2023-10-19T10:33:44;96568.41;;;23.86;88.65
18275;BME280;19470;49.322;7.218;2023-10-19T10:36:14;96572.22;;;23.78;87.64
18275;BME280;19470;49.322;7.218;2023-10-19T10:38:43;96573.81;;;23.86;87.32
18275;BME280;19470;49.322;7.218;2023-10-19T10:41:09;96562.16;;;23.71;90.57
18275;BME280;19470;49.322;7.218;2023-10-19T10:43:57;96561.41;;;23.78;89.12
18275;BME280;19470;49.322;7.218;2023-10-19T10:46:24;96564.91;;;23.82;89.05
18275;BME280;19470;49.322;7.218;2023-10-19T10:48:53;96565.16;;;23.63;91.52
18275;BME280;19470;49.322;7.218;2023-10-19T10:51:22;96567.47;;;23.57;90.44
18275;BME280;19470;49.322;7.218;2023-10-19T10:53:50;96552.31;;;23.42;92.28
18275;BME280;19470;49.322;7.218;2023-10-19T10:56:18;96556.56;;;23.39;93.89
18275;BME280;19470;49.322;7.218;2023-10-19T10:58:45;96554.09;;;23.16;98.45
18275;BME280;19470;49.322;7.218;2023-10-19T11:01:12;96542.41;;;23.05;98.41
18275;BME280;19470;49.322;7.218;2023-10-19T11:03:39;96535.91;;;23.10;96.82
18275;BME280;19470;49.322;7.218;2023-10-19T11:06:08;96545.97;;;23.13;98.94
18275;BME280;19470;49.322;7.218;2023-10-19T11:08:35;96562.25;;;22.79;99.85
18275;BME280;19470;49.322;7.218;2023-10-19T11:11:04;96562.72;;;22.88;97.24
18275;BME280;19470;49.322;7.218;2023-10-19T11:13:31;96549.75;;;23.05;95.35
18275;BME280;19470;49.322;7.218;2023-10-19T11:16:03;96566.03;;;23.19;96.80
18275;BME280;19470;49.322;7.218;2023-10-19T11:18:35;96567.66;;;23.27;97.66
18275;BME280;19470;49.322;7.218;2023-10-19T11:21:05;96570.75;;;23.29;96.97
18275;BME280;19470;49.322;7.218;2023-10-19T11:23:41;96591.84;;;22.31;100.00
18275;BME280;19470;49.322;7.218;2023-10-19T11:26:09;96601.84;;;23.09;96.76
18275;BME280;19470;49.322;7.218;2023-10-19T11:28:36;96595.63;;;23.05;94.79
18275;BME280;19470;49.322;7.218;2023-10-19T11:31:16;96592.53;;;23.03;94.01
18275;BME280;19470;49.322;7.218;2023-10-19T11:33:44;96574.31;;;23.47;93.04
18275;BME280;19470;49.322;7.218;2023-10-19T11:36:15;96584.53;;;23.72;90.75
18275;BME280;19470;49.322;7.218;2023-10-19T11:38:44;96580.59;;;23.59;92.27
18275;BME280;19470;49.322;7.218;2023-10-19T11:41:11;96578.84;;;23.91;89.96
18275;BME280;19470;49.322;7.218;2023-10-19T11:43:39;96583.28;;;24.50;87.79
18275;BME280;19470;49.322;7.218;2023-10-19T11:46:06;96585.56;;;24.33;91.12
18275;BME280;19470;49.322;7.218;2023-10-19T11:48:33;96588.75;;;25.21;85.60
18275;BME280;19470;49.322;7.218;2023-10-19T11:51:01;96585.25;;;25.31;81.46
18275;BME280;19470;49.322;7.218;2023-10-19T11:53:30;96570.16;;;25.48;80.35
18275;BME280;19470;49.322;7.218;2023-10-19T11:56:00;96572.88;;;24.87;84.51
18275;BME280;19470;49.322;7.218;2023-10-19T11:58:29;96578.63;;;24.46;86.36
18275;BME280;19470;49.322;7.218;2023-10-19T12:00:55;96571.22;;;24.18;88.65
18275;BME280;19470;49.322;7.218;2023-10-19T12:03:22;96580.47;;;24.14;91.45
18275;BME280;19470;49.322;7.218;2023-10-19T12:05:48;96581.28;;;24.32;89.76
18275;BME280;19470;49.322;7.218;2023-10-19T12:08:18;96583.94;;;24.18;88.94
18275;BME280;19470;49.322;7.218;2023-10-19T12:10:44;96576.53;;;23.93;85.85
18275;BME280;19470;49.322;7.218;2023-10-19T12:13:12;96576.81;;;23.67;89.93
18275;BME280;19470;49.322;7.218;2023-10-19T12:15:39;96574.56;;;23.21;93.77
18275;BME280;19470;49.322;7.218;2023-10-19T12:18:06;96562.75;;;23.47;90.23
18275;BME280;19470;49.322;7.218;2023-10-19T12:20:33;96560.84;;;23.51;88.78
18275;BME280;19470;49.322;7.218;2023-10-19T12:23:00;96558.44;;;23.35;89.44
18275;BME280;19470;49.322;7.218;2023-10-19T12:25:28;96568.78;;;23.23;93.89
18275;BME280;19470;49.322;7.218;2023-10-19T12:27:58;96552.66;;;22.85;96.72
18275;BME280;19470;49.322;7.218;2023-10-19T12:30:52;96551.34;;;22.65;98.85
18275;BME280;19470;49.322;7.218;2023-10-19T12:33:19;96550.31;;;22.39;100.00
18275;BME280;19470;49.322;7.218;2023-10-19T12:35:45;96546.28;;;22.19;100.00
18275;BME280;19470;49.322;7.218;2023-10-19T12:38:15;96542.91;;;22.29;100.00
18275;BME280;19470;49.322;7.218;2023-10-19T12:40:45;96539.22;;;22.11;100.00
18275;BME280;19470;49.322;7.218;2023-10-19T12:43:12;96540.06;;;22.15;99.51
18275;BME280;19470;49.322;7.218;2023-10-19T12:45:39;96534.38;;;22.24;100.00
18275;BME280;19470;49.322;7.218;2023-10-19T12:48:07;96534.16;;;22.06;100.00
18275;BME280;19470;49.322;7.218;2023-10-19T12:50:36;96531.72;;;22.27;100.00
18275;BME280;19470;49.322;7.218;2023-10-19T12:53:03;96520.81;;;22.13;100.00
18275;BME280;19470;49.322;7.218;2023-10-19T12:55:31;96518.41;;;22.08;100.00
18275;BME280;19470;49.322;7.218;2023-10-19T12:57:58;96516.50;;;22.08;100.00
18275;BME280;19470;49.322;7.218;2023-10-19T13:00:31;96514.97;;;22.11;100.00
18275;BME280;19470;49.322;7.218;2023-10-19T13:03:01;96510.22;;;22.34;100.00
18275;BME280;19470;49.322;7.218;2023-10-19T13:05:33;96510.97;;;22.31;100.00